Monroe, UT (84754)

2:29 AM MST on February 28, 2017 (GMT -0700)
Monroe Foothills | | Change Station
Active Advisory: Winter Storm Warning

Elev 5483 ft 38.63 °N, 112.11 °W | Updated 5 seconds ago

Overcast
Overcast
23.4 °F
Feels Like 23 °F
N
0.0
Wind Variable Wind from South
Gusts 0.0 mph

Today
High -- | Low -- °F
--% Chance of Precip.
Yesterday
High -- | Low -- °F
Precip. -- in
Pressure 29.80 in
Visibility 10.0 miles
Clouds Overcast 6000 ft
Windchill 23 °F
Dew Point 23 °F
Humidity 97%
Rainfall 0.00 in
Snow Depth Not available.
7:01 AM 6:20 PM
Waxing Crescent, 4% visible
METAR KMLF 280852Z AUTO 34010KT 10SM OVC060 M04/M05 A2978 RMK AO2 SLP089 60001 T10391050 56003
Pressure 29.80 in
Visibility 10.0 miles
Clouds Overcast 6000 ft
Windchill 23 °F
Dew Point 23 °F
Humidity 97%
Rainfall 0.00 in
Snow Depth Not available.
7:01 AM 6:20 PM
Waxing Crescent, 4% visible
METAR KMLF 280852Z AUTO 34010KT 10SM OVC060 M04/M05 A2978 RMK AO2 SLP089 60001 T10391050 56003

Get Your Daily Forecast Email!

Thanks for signing up!

Be on the lookout for a verification email in your inbox.

You'll start receiving the daily forecast at 8 AM.

×

10-Day Weather Forecast

Almanac

Astronomy

Feb. 28, 2017 Rise Set
Actual Time
Civil Twilight
Nautical Twilight
Astronomical Twilight
Moon
Length of Visible Light
Length of Day
Tomorrow will be .
, % of the Moon is Illuminated

Today's Extremes

State Highs State Lows

Community

WunderPhotos

Upload Photos

1,962,540 photos uploaded!

WunderBlog® & News

Nearby

Air Quality

  Air Quality AQ Index Pollutant
Not available.

Snow Depth

Station Depth Elevation

Earthquake Activity

City Distance Mag. Time & Date
Minimum magnitude displayed is 2.5.

Coastal Water Temperatures

Place Temperature

Stations

Nearby Weather Stations

Station Location Temp. Windchill Dew Point Humidity Wind Precip. Elev Updated Type
                   

Watches & Warnings

Winter Storm Warning
Issued: 8:09 PM MST Feb. 27, 2017 – National Weather Service

... Winter Storm Warning remains in effect until 4 am MST
Tuesday...

* affected area... west central Utah the Sanpete and Sevier
valleys.

* Snow accumulations... additional accumulations of 1 to 4 inches.

* Timing... snow will increase in intensity and areal coverage
again by around midnight. Accumulating snowfall will remain
focused on mainly southeast Millard County and the Sevier
Valley.

* Impacts... winter driving conditions are expected with snow
covered roadways and poor visibility.

Precautionary/preparedness actions...

A Winter Storm Warning for heavy snow means that significant
accumulations of snow are expected or occurring. Driving
conditions may be hazardous. Use caution. Keep a winter storm
survival kit in your vehicle in case of an emergency.

For winter Road conditions from the Utah Department of
Transportation, visit
http://www.Udottraffic.Utah.Gov/roadweatherforecast.Aspx or dial
511.